This is the latest recevied weather packets stored in our database for station/object HB9DOZ-13. If no packets are shown the sender has not sent any weather packets the latest 10 day(s).
| Time | Temp. | Humidity | Pressure | Rain* | Wind** | Luminosity | Snow |
|---|---|---|---|---|---|---|---|
| 1777662915 | 15.56° C | 51% | - | 0 mm | - | - | - |
| 1777655717 | 20° C | 44% | - | 0 mm | - | - | - |
| 1777655117 | 20° C | 44% | - | 0 mm | - | - | - |
| 1777652116 | 20.56° C | 45% | - | 0 mm | - | - | - |
| 1777650917 | 21.11° C | 45% | - | 0 mm | - | - | - |
| 1777649755 | 21.67° C | 46% | - | 0 mm | - | - | - |
| 1777647317 | 22.22° C | 46% | - | 0 mm | - | - | - |
| 1777645516 | 22.22° C | 46% | - | 0 mm | - | - | - |
| 1777644916 | 22.22° C | 46% | - | 0 mm | - | - | - |
| 1777641336 | 21.67° C | 47% | - | 0 mm | - | - | - |
| 1777638917 | 21.11° C | 46% | - | 0 mm | - | - | - |
| 1777637715 | 20.56° C | 47% | - | 0 mm | - | - | - |
| 1777634737 | 19.44° C | 44% | - | 0 mm | - | - | - |
| 1777633515 | 18.33° C | 45% | - | 0 mm | - | - | - |
| 1777629316 | 16.11° C | 45% | - | 0 mm | - | - | - |
| 1777622117 | 12.22° C | 53% | - | 0 mm | - | - | - |
| 1777621518 | 11.67° C | 51% | - | 0 mm | - | - | - |
| 1777620356 | 10.56° C | 54% | - | 0 mm | - | - | - |
| 1777613717 | 6.67° C | 67% | - | 0 mm | - | - | - |
| 1777613158 | 6.11° C | 63% | - | 0 mm | - | - | - |
| 1777611915 | 6.11° C | 64% | - | 0 mm | - | - | - |
| 1777607156 | 6.67° C | 61% | - | 0 mm | - | - | - |
| 1777604115 | 6.67° C | 60% | - | 0 mm | - | - | - |
| 1777598136 | 7.78° C | 53% | - | 0 mm | - | - | - |
| 1777597517 | 7.78° C | 50% | - | 0 mm | - | - | - |
* Rain latest hour (hover to see other rain measurements)
** Current wind speed in m/s (hover to see current wind gust speed)